Time;durP1;ratioP1;P1;durP2;ratioP2;P2;SDS_P1;SDS_P2;PMS_P1;PMS_P2;Temp;Humidity;BMP_temperature;BMP_pressure;BME280_temperature;BME280_humidity;BME280_pressure;Samples;Min_cycle;Max_cycle;Signal;HPM_P1;HPM_P2
2022/01/22 00:02:06;;;;;;;0.10;0.10;;;6.20;99.90;;;;;;5125120;28;20037;-85
2022/01/22 00:04:33;;;;;;;0.10;0.10;;;6.20;99.90;;;;;;5125569;28;20036;-85
2022/01/22 00:07:02;;;;;;;0.10;0.10;;;6.20;99.90;;;;;;5108305;28;20040;-85
2022/01/22 00:09:36;;;;;;;0.10;0.10;;;6.20;99.90;;;;;;5109186;28;20044;-85
2022/01/22 00:12:06;;;;;;;0.10;0.10;;;6.20;99.90;;;;;;5125496;28;20393;-85
2022/01/22 00:14:34;;;;;;;0.00;0.00;;;6.20;99.90;;;;;;5109334;28;20531;-85
2022/01/22 00:17:03;;;;;;;0.10;0.10;;;6.20;99.90;;;;;;5108431;28;20036;-85
2022/01/22 00:19:30;;;;;;;0.10;0.10;;;6.20;99.90;;;;;;5125458;28;20456;-85
2022/01/22 00:21:58;;;;;;;0.10;0.10;;;6.40;99.90;;;;;;5125435;28;20124;-85
2022/01/22 00:24:25;;;;;;;0.10;0.10;;;6.20;99.90;;;;;;5108727;28;20082;-85
2022/01/22 00:26:51;;;;;;;0.10;0.10;;;6.20;99.90;;;;;;5125739;28;20508;-85
2022/01/22 00:29:18;;;;;;;0.10;0.10;;;6.20;99.90;;;;;;5108584;28;20480;-85
2022/01/22 00:31:45;;;;;;;0.10;0.10;;;6.20;99.90;;;;;;5108413;28;20044;-85
2022/01/22 00:34:12;;;;;;;0.10;0.10;;;6.20;99.90;;;;;;5107989;28;20047;-85
2022/01/22 00:36:39;;;;;;;0.00;0.00;;;6.20;99.90;;;;;;5069437;28;1112120;-85
2022/01/22 00:39:06;;;;;;;0.10;0.10;;;6.80;99.90;;;;;;5109105;28;20055;-85
2022/01/22 00:41:33;;;;;;;0.03;0.03;;;6.30;99.90;;;;;;5109329;28;20040;-85
2022/01/22 00:44:00;;;;;;;0.10;0.10;;;6.20;99.90;;;;;;5109626;28;20040;-85
2022/01/22 00:46:27;;;;;;;0.00;0.00;;;6.20;99.90;;;;;;5125554;28;20507;-85
2022/01/22 00:48:53;;;;;;;0.10;0.10;;;6.20;99.90;;;;;;5125744;28;20040;-85
2022/01/22 00:51:20;;;;;;;0.10;0.10;;;6.20;99.90;;;;;;5108713;28;20038;-86
2022/01/22 00:53:48;;;;;;;0.10;0.10;;;6.20;99.90;;;;;;5109849;28;20040;-85
2022/01/22 00:56:14;;;;;;;0.10;0.10;;;5.70;99.90;;;;;;5109115;28;20071;-85
2022/01/22 00:58:41;;;;;;;0.00;0.00;;;6.20;99.90;;;;;;5109016;28;20821;-85
2022/01/22 01:01:08;;;;;;;0.10;0.10;;;6.20;99.90;;;;;;5109984;28;20040;-85
2022/01/22 01:03:35;;;;;;;0.00;0.00;;;6.60;99.90;;;;;;5112566;28;20044;-85
2022/01/22 01:06:04;;;;;;;0.10;0.10;;;6.20;99.90;;;;;;5112471;28;20042;-85
2022/01/22 01:08:33;;;;;;;0.10;0.10;;;6.20;99.90;;;;;;5129086;28;20477;-85
2022/01/22 01:11:00;;;;;;;0.10;0.10;;;6.30;99.90;;;;;;5112904;28;20044;-86
2022/01/22 01:13:35;;;;;;;0.10;0.10;;;6.30;99.90;;;;;;5112398;28;20047;-85
2022/01/22 01:32:48;;;;;;;0.00;0.00;;;6.30;99.90;;;;;;5115316;28;20051;-86
2022/01/22 01:35:15;;;;;;;0.05;0.05;;;6.30;99.90;;;;;;5130625;28;20040;-85
2022/01/22 01:37:42;;;;;;;0.10;0.10;;;6.30;99.90;;;;;;5111899;28;20048;-85
2022/01/22 01:40:11;;;;;;;0.00;0.00;;;6.30;99.90;;;;;;5111965;28;20044;-86
2022/01/22 01:42:47;;;;;;;0.10;0.10;;;6.30;99.90;;;;;;5112492;28;20177;-85
2022/01/22 01:45:14;;;;;;;0.10;0.10;;;6.20;99.90;;;;;;5128422;28;20511;-85
2022/01/22 01:47:44;;;;;;;0.05;0.05;;;6.20;99.90;;;;;;5111812;28;20036;-85
2022/01/22 01:50:11;;;;;;;0.00;0.00;;;6.20;99.90;;;;;;5112031;28;20071;-85
2022/01/22 01:53:30;;;;;;;0.10;0.10;;;6.30;99.90;;;;;;5111943;28;20039;-85
2022/01/22 01:55:36;;;;;;;0.10;0.10;;;6.30;99.90;;;;;;5109399;28;20101;-86
2022/01/22 01:58:04;;;;;;;0.10;0.10;;;6.20;99.90;;;;;;5128747;28;20127;-85
2022/01/22 02:00:31;;;;;;;0.10;0.10;;;6.20;99.90;;;;;;5128076;28;20442;-85
2022/01/22 02:02:59;;;;;;;0.10;0.10;;;6.20;99.90;;;;;;5128172;28;20032;-85
2022/01/22 02:05:26;;;;;;;0.10;0.10;;;6.20;99.90;;;;;;5111232;28;20484;-85
2022/01/22 02:07:55;;;;;;;0.10;0.10;;;6.20;99.90;;;;;;5111371;28;20046;-85
2022/01/22 02:10:26;;;;;;;0.10;0.10;;;6.20;99.90;;;;;;5145411;27;20050;-85
2022/01/22 02:23:45;;;;;;;0.10;0.10;;;6.20;99.90;;;;;;5162623;27;20561;-85
2022/01/22 02:26:14;;;;;;;0.10;0.10;;;6.20;99.90;;;;;;5128332;28;20129;-85
2022/01/22 02:28:42;;;;;;;0.20;0.20;;;6.20;99.90;;;;;;5128106;28;20143;-85
2022/01/22 02:31:16;;;;;;;0.10;0.10;;;6.20;99.90;;;;;;5128224;28;20051;-85
2022/01/22 02:36:31;;;;;;;0.10;0.10;;;5.90;99.90;;;;;;5111524;28;20044;-85
2022/01/22 02:41:26;;;;;;;0.00;0.00;;;6.20;99.90;;;;;;5110311;28;20096;-85
2022/01/22 02:43:56;;;;;;;0.10;0.10;;;6.30;99.90;;;;;;5111141;28;20071;-86
2022/01/22 02:46:25;;;;;;;0.10;0.10;;;5.90;99.90;;;;;;5127478;28;20065;-86
2022/01/22 02:48:54;;;;;;;0.10;0.10;;;6.10;99.90;;;;;;5127377;28;20127;-86
2022/01/22 02:51:26;;;;;;;0.10;0.10;;;6.10;99.90;;;;;;5127350;28;20040;-85
2022/01/22 02:53:55;;;;;;;0.10;0.10;;;6.10;99.90;;;;;;5127299;28;20047;-85
2022/01/22 02:56:24;;;;;;;0.03;0.03;;;6.10;99.90;;;;;;5110469;28;20043;-85
2022/01/22 02:58:52;;;;;;;0.10;0.10;;;6.10;99.90;;;;;;5110415;28;20040;-85
2022/01/22 03:01:19;;;;;;;0.10;0.10;;;6.10;99.90;;;;;;5110313;28;20032;-85
2022/01/22 03:03:46;;;;;;;0.10;0.10;;;6.10;99.90;;;;;;5110717;28;20040;-85
2022/01/22 03:06:13;;;;;;;0.10;0.10;;;6.10;99.90;;;;;;5110642;28;20733;-85
2022/01/22 03:08:42;;;;;;;0.10;0.10;;;6.10;99.90;;;;;;5110145;28;20552;-85
2022/01/22 03:11:19;;;;;;;0.05;0.05;;;6.10;99.90;;;;;;5110891;28;20040;-85
2022/01/22 03:14:45;;;;;;;0.10;0.10;;;6.10;99.90;;;;;;5111735;28;20052;-85
2022/01/22 03:19:09;;;;;;;0.10;0.10;;;6.10;99.90;;;;;;5110440;28;20044;-86
2022/01/22 03:21:41;;;;;;;0.10;0.10;;;6.10;99.90;;;;;;5111427;28;20067;-85
2022/01/22 03:29:59;;;;;;;0.10;0.10;;;6.10;99.90;;;;;;5057166;28;20490;-85
2022/01/22 03:32:31;;;;;;;0.10;0.10;;;6.10;99.90;;;;;;5035361;28;20041;-85
2022/01/22 03:35:08;;;;;;;0.10;0.10;;;6.00;99.90;;;;;;5080977;28;21043;-85
2022/01/22 03:37:37;;;;;;;0.10;0.10;;;6.00;99.90;;;;;;5126368;28;20138;-85
2022/01/22 03:40:04;;;;;;;0.00;0.00;;;6.00;99.90;;;;;;5123787;28;20049;-85
2022/01/22 03:42:31;;;;;;;0.10;0.10;;;6.00;99.90;;;;;;5159256;27;20074;-85
2022/01/22 03:44:58;;;;;;;0.10;0.10;;;6.00;99.90;;;;;;5109467;28;20125;-85
2022/01/22 03:47:25;;;;;;;0.10;0.10;;;6.00;99.90;;;;;;5093138;28;20036;-85
2022/01/22 03:49:51;;;;;;;0.10;0.10;;;6.00;99.90;;;;;;5092917;28;20485;-85
2022/01/22 03:52:18;;;;;;;0.10;0.10;;;6.00;99.90;;;;;;5092974;28;20032;-85
2022/01/22 03:54:45;;;;;;;0.10;0.10;;;6.00;99.90;;;;;;5092727;28;20114;-85
2022/01/22 03:57:12;;;;;;;0.08;0.08;;;6.00;99.90;;;;;;5093045;28;20036;-85
2022/01/22 03:59:39;;;;;;;0.00;0.00;;;6.00;99.90;;;;;;5109025;28;20073;-85
2022/01/22 04:02:48;;;;;;;0.10;0.10;;;6.00;99.90;;;;;;5092785;28;20044;-85
2022/01/22 04:05:03;;;;;;;0.10;0.10;;;6.00;99.90;;;;;;5113700;28;20044;-85
2022/01/22 04:10:21;;;;;;;0.10;0.10;;;6.00;99.90;;;;;;5126892;28;20189;-85
2022/01/22 04:12:56;;;;;;;0.10;0.10;;;6.00;99.90;;;;;;5092969;28;20699;-85
2022/01/22 04:15:26;;;;;;;0.10;0.10;;;6.00;99.90;;;;;;5110926;28;20040;-85
2022/01/22 04:28:42;;;;;;;0.10;0.10;;;6.10;99.90;;;;;;5144027;28;20055;-85
2022/01/22 04:31:08;;;;;;;0.10;0.10;;;6.00;99.90;;;;;;5092863;28;20040;-85
2022/01/22 04:33:35;;;;;;;0.10;0.10;;;6.00;99.90;;;;;;5092311;28;20048;-84
2022/01/22 04:36:05;;;;;;;0.03;0.03;;;6.00;99.90;;;;;;5093864;28;20040;-85
2022/01/22 04:38:31;;;;;;;0.00;0.00;;;5.90;99.90;;;;;;5129114;28;20062;-85
2022/01/22 04:40:59;;;;;;;0.10;0.10;;;5.90;99.90;;;;;;5096709;28;20044;-85
2022/01/22 04:43:27;;;;;;;0.10;0.10;;;5.90;99.90;;;;;;5129682;28;20412;-85
2022/01/22 04:56:38;;;;;;;0.10;0.10;;;5.90;99.90;;;;;;5143993;28;19965;-84
2022/01/22 04:59:04;;;;;;;0.10;0.10;;;5.90;99.90;;;;;;5112593;28;20040;-85
2022/01/22 05:01:31;;;;;;;0.10;0.10;;;5.90;99.90;;;;;;5095906;28;20043;-85
2022/01/22 05:03:58;;;;;;;0.10;0.10;;;5.90;99.90;;;;;;5112482;28;20063;-85
2022/01/22 05:06:26;;;;;;;0.10;0.10;;;6.00;99.90;;;;;;5112652;28;20485;-85
2022/01/22 05:08:53;;;;;;;0.00;0.00;;;6.20;99.90;;;;;;5112316;28;20538;-84
2022/01/22 05:11:20;;;;;;;0.00;0.00;;;5.90;99.90;;;;;;5095936;28;20036;-85
2022/01/22 05:13:47;;;;;;;0.00;0.00;;;5.80;99.90;;;;;;5095733;28;20044;-85
2022/01/22 05:16:13;;;;;;;0.10;0.10;;;5.90;99.90;;;;;;5096007;28;20429;-85
2022/01/22 05:18:50;;;;;;;0.00;0.00;;;6.00;99.90;;;;;;5095739;28;20044;-85
2022/01/22 05:21:18;;;;;;;0.00;0.00;;;5.90;99.90;;;;;;5146047;28;20472;-85
2022/01/22 05:23:46;;;;;;;0.10;0.10;;;5.90;99.90;;;;;;5112062;28;20519;-85
2022/01/22 05:26:43;;;;;;;0.03;0.03;;;5.90;99.90;;;;;;5095753;28;20036;-85
2022/01/22 05:37:09;;;;;;;0.10;0.10;;;5.90;99.90;;;;;;5128682;28;20135;-85
2022/01/22 05:39:37;;;;;;;0.08;0.08;;;5.90;99.90;;;;;;5112048;28;20050;-85
2022/01/22 05:42:07;;;;;;;0.03;0.03;;;5.90;99.90;;;;;;5145517;28;20040;-85
2022/01/22 05:44:35;;;;;;;0.03;0.03;;;5.80;99.90;;;;;;5095523;28;20036;-85
2022/01/22 05:47:05;;;;;;;0.10;0.10;;;5.90;99.90;;;;;;5112173;28;20079;-86
2022/01/22 05:49:36;;;;;;;0.00;0.00;;;5.80;99.90;;;;;;5111651;28;20511;-85
2022/01/22 05:52:06;;;;;;;0.10;0.10;;;5.80;99.90;;;;;;5128374;28;20393;-85
2022/01/22 06:00:06;;;;;;;0.08;0.08;;;5.90;99.90;;;;;;5147869;27;20102;-85
2022/01/22 06:02:33;;;;;;;0.10;0.10;;;5.80;99.90;;;;;;5128297;28;20480;-85
2022/01/22 06:04:59;;;;;;;0.00;0.00;;;5.80;99.90;;;;;;5094558;28;20032;-85
2022/01/22 06:07:26;;;;;;;0.10;0.10;;;5.90;99.90;;;;;;5094781;28;20043;-84
2022/01/22 06:12:43;;;;;;;0.10;0.10;;;5.90;99.90;;;;;;5146402;27;20051;-86
2022/01/22 06:15:11;;;;;;;0.00;0.00;;;5.90;99.90;;;;;;5114140;28;20098;-85
2022/01/22 06:17:38;;;;;;;0.05;0.05;;;5.90;99.90;;;;;;5111337;28;20036;-85
2022/01/22 06:20:06;;;;;;;0.10;0.10;;;6.70;99.90;;;;;;5094225;28;20040;-85
2022/01/22 06:22:33;;;;;;;0.10;0.10;;;5.90;99.90;;;;;;5094700;28;20035;-85
2022/01/22 06:25:00;;;;;;;0.00;0.00;;;5.90;99.90;;;;;;5127678;28;20154;-85
2022/01/22 06:27:26;;;;;;;0.00;0.00;;;5.90;99.90;;;;;;5094247;28;20064;-85
2022/01/22 06:29:53;;;;;;;0.10;0.10;;;5.90;99.90;;;;;;5111041;28;20089;-85
2022/01/22 06:32:20;;;;;;;0.10;0.10;;;5.90;99.90;;;;;;5093997;28;20063;-85
2022/01/22 06:34:47;;;;;;;0.03;0.03;;;5.90;99.90;;;;;;5093827;28;20090;-85
2022/01/22 06:37:13;;;;;;;0.00;0.00;;;5.90;99.90;;;;;;5110697;28;20087;-85
2022/01/22 06:42:29;;;;;;;0.10;0.10;;;5.90;99.90;;;;;;5126823;27;20132;-85
2022/01/22 06:44:57;;;;;;;0.08;0.08;;;5.90;99.90;;;;;;5093769;28;20047;-84
2022/01/22 06:47:25;;;;;;;0.08;0.08;;;5.90;99.90;;;;;;5094324;28;20127;-85
2022/01/22 06:49:52;;;;;;;0.03;0.03;;;5.90;99.90;;;;;;5093517;28;20385;-85
2022/01/22 06:52:19;;;;;;;0.10;0.10;;;5.90;99.90;;;;;;5127343;28;20050;-85
2022/01/22 06:54:47;;;;;;;0.05;0.05;;;5.90;99.90;;;;;;5093800;28;20128;-85
2022/01/22 06:57:14;;;;;;;0.10;0.10;;;5.90;99.90;;;;;;5110578;28;20485;-85
2022/01/22 06:59:41;;;;;;;0.00;0.00;;;5.90;99.90;;;;;;5110082;28;20039;-85
2022/01/22 07:02:08;;;;;;;0.10;0.10;;;5.90;99.90;;;;;;5093509;28;20040;-85
2022/01/22 07:04:37;;;;;;;0.10;0.10;;;5.90;99.90;;;;;;5094076;28;20436;-85
2022/01/22 07:07:05;;;;;;;0.10;0.10;;;6.00;99.90;;;;;;5144610;27;20047;-85
2022/01/22 07:09:32;;;;;;;0.10;0.10;;;5.90;99.90;;;;;;5094126;28;20032;-85
2022/01/22 07:11:58;;;;;;;0.10;0.10;;;6.00;99.90;;;;;;5126866;28;20515;-85
2022/01/22 07:14:26;;;;;;;0.10;0.10;;;6.50;99.90;;;;;;5093532;28;20047;-85
2022/01/22 07:16:53;;;;;;;0.10;0.10;;;5.90;99.90;;;;;;5093255;28;20135;-85
2022/01/22 07:19:20;;;;;;;0.00;0.00;;;5.90;99.90;;;;;;5110444;28;20127;-85
2022/01/22 07:21:57;;;;;;;0.10;0.10;;;5.90;99.90;;;;;;5093543;28;20570;-85
2022/01/22 07:24:26;;;;;;;0.10;0.10;;;5.90;99.90;;;;;;5130751;28;20032;-85
2022/01/22 07:26:53;;;;;;;0.10;0.10;;;6.00;99.90;;;;;;5141055;27;20555;-85
2022/01/22 07:29:22;;;;;;;0.00;0.00;;;5.90;99.90;;;;;;5112911;28;20043;-85
2022/01/22 07:31:49;;;;;;;0.10;0.10;;;6.10;99.90;;;;;;5127303;28;20040;-85
2022/01/22 07:34:15;;;;;;;0.05;0.05;;;5.90;99.90;;;;;;5129941;28;20046;-85
2022/01/22 07:36:42;;;;;;;0.10;0.10;;;5.90;99.90;;;;;;5092661;28;20439;-85
2022/01/22 07:39:09;;;;;;;0.00;0.00;;;5.90;99.90;;;;;;5092452;28;20075;-85
2022/01/22 07:41:37;;;;;;;0.10;0.10;;;5.90;99.90;;;;;;5109292;28;20040;-85
2022/01/22 07:44:04;;;;;;;0.10;0.10;;;5.90;99.90;;;;;;5091993;28;20093;-85
2022/01/22 07:46:31;;;;;;;0.03;0.03;;;5.90;99.90;;;;;;5093272;28;20081;-84
2022/01/22 07:48:57;;;;;;;0.00;0.00;;;5.80;99.90;;;;;;5092574;28;20396;-85
2022/01/22 07:51:24;;;;;;;0.10;0.10;;;5.90;99.90;;;;;;5126982;28;20039;-85
2022/01/22 07:53:51;;;;;;;0.00;0.00;;;5.80;99.90;;;;;;5092955;28;20454;-85
2022/01/22 07:56:18;;;;;;;0.10;0.10;;;5.90;99.90;;;;;;5106894;28;20036;-85
2022/01/22 07:58:45;;;;;;;0.00;0.00;;;6.10;99.90;;;;;;5093398;28;20040;-86
2022/01/22 08:01:11;;;;;;;0.10;0.10;;;5.80;99.90;;;;;;5106649;28;20044;-86
2022/01/22 08:03:38;;;;;;;0.10;0.10;;;5.90;99.90;;;;;;5133210;28;20031;-85
2022/01/22 08:06:05;;;;;;;0.10;0.10;;;5.80;99.90;;;;;;5131291;28;20558;-86
2022/01/22 08:08:34;;;;;;;0.10;0.10;;;5.80;99.90;;;;;;5103053;28;20058;-86
2022/01/22 08:11:01;;;;;;;0.10;0.10;;;5.80;99.90;;;;;;5131015;28;20047;-85
2022/01/22 08:13:29;;;;;;;0.10;0.10;;;5.80;99.90;;;;;;5133877;28;20044;-85
2022/01/22 08:15:56;;;;;;;0.00;0.00;;;5.80;99.90;;;;;;5100769;28;20039;-87
2022/01/22 08:18:23;;;;;;;0.10;0.10;;;5.80;99.90;;;;;;5100522;28;20071;-86
2022/01/22 08:20:51;;;;;;;0.08;0.08;;;5.80;99.90;;;;;;5134354;28;20078;-89
2022/01/22 08:23:20;;;;;;;0.10;0.10;;;5.80;99.90;;;;;;5117504;28;20039;-86
2022/01/22 08:25:49;;;;;;;0.10;0.10;;;6.00;99.90;;;;;;5100873;28;20071;-86
2022/01/22 08:31:39;;;;;;;0.00;0.00;;;5.80;99.90;;;;;;5122235;28;20122;-87
2022/01/22 08:36:37;;;;;;;0.10;0.10;;;5.80;99.90;;;;;;5131096;28;20489;-86
2022/01/22 08:39:04;;;;;;;0.10;0.10;;;6.60;99.90;;;;;;5096861;28;20136;-86
2022/01/22 08:41:32;;;;;;;0.00;0.00;;;5.80;99.90;;;;;;5147305;28;20515;-86
2022/01/22 08:44:00;;;;;;;0.10;0.10;;;5.80;99.90;;;;;;5112943;28;20040;-86
2022/01/22 08:46:28;;;;;;;0.10;0.10;;;5.80;99.90;;;;;;5112927;28;20036;-86
2022/01/22 08:48:55;;;;;;;0.10;0.10;;;5.80;99.90;;;;;;5113284;28;20097;-86
2022/01/22 08:51:25;;;;;;;0.00;0.00;;;5.90;99.90;;;;;;5147134;28;20101;-86
2022/01/22 08:53:52;;;;;;;0.10;0.10;;;5.90;99.90;;;;;;5096418;28;20101;-86
2022/01/22 08:56:22;;;;;;;0.10;0.10;;;5.90;99.90;;;;;;5096183;28;20040;-86
2022/01/22 08:58:48;;;;;;;0.10;0.10;;;5.90;99.90;;;;;;5096278;28;20155;-86
2022/01/22 09:01:15;;;;;;;0.00;0.00;;;5.90;99.90;;;;;;5096369;28;20123;-86
2022/01/22 09:03:42;;;;;;;0.10;0.10;;;5.90;99.90;;;;;;5129980;28;20476;-86
2022/01/22 09:06:11;;;;;;;0.10;0.10;;;5.90;99.90;;;;;;5129756;28;20130;-86
2022/01/22 09:08:39;;;;;;;0.10;0.10;;;5.90;99.90;;;;;;5097103;28;20080;-87
2022/01/22 09:11:07;;;;;;;0.03;0.03;;;5.90;99.90;;;;;;5139407;28;20040;-86
2022/01/22 09:13:34;;;;;;;0.10;0.10;;;5.90;99.90;;;;;;5166594;27;20054;-85
2022/01/22 09:16:04;;;;;;;0.10;0.10;;;5.90;99.90;;;;;;5115638;28;20096;-86
2022/01/22 09:18:31;;;;;;;0.00;0.00;;;5.90;99.90;;;;;;5149174;28;20039;-86
2022/01/22 09:23:27;;;;;;;0.05;0.05;;;5.90;99.90;;;;;;5148308;28;20047;-86
2022/01/22 09:25:54;;;;;;;0.00;0.00;;;5.90;99.90;;;;;;5132716;28;20503;-86
2022/01/22 09:28:21;;;;;;;0.10;0.10;;;6.30;99.90;;;;;;5148572;27;20039;-86
2022/01/22 09:30:48;;;;;;;0.10;0.10;;;5.90;99.90;;;;;;5132512;28;20514;-86
2022/01/22 09:33:15;;;;;;;0.08;0.08;;;5.90;99.90;;;;;;5148903;28;20039;-85
2022/01/22 09:35:42;;;;;;;0.10;0.10;;;5.90;99.90;;;;;;5122081;28;20039;-87
2022/01/22 09:38:09;;;;;;;0.05;0.05;;;6.00;99.90;;;;;;5109660;28;20047;-85
2022/01/22 09:40:36;;;;;;;0.10;0.10;;;6.00;99.90;;;;;;5132072;28;20553;-88
2022/01/22 09:43:02;;;;;;;0.10;0.10;;;6.00;99.90;;;;;;5115120;28;20036;-86
2022/01/22 09:45:30;;;;;;;0.00;0.00;;;6.30;99.90;;;;;;5148814;28;20035;-86
2022/01/22 09:47:59;;;;;;;0.10;0.10;;;6.00;99.90;;;;;;5149042;27;20035;-84
2022/01/22 09:50:27;;;;;;;0.10;0.10;;;6.00;99.90;;;;;;5114668;28;20039;-86
2022/01/22 09:52:54;;;;;;;0.10;0.10;;;6.60;99.90;;;;;;5149352;28;20040;-86
2022/01/22 09:55:22;;;;;;;0.00;0.00;;;6.10;99.90;;;;;;5131754;28;20484;-86
2022/01/22 09:57:49;;;;;;;0.10;0.10;;;6.10;99.90;;;;;;5115511;28;20051;-87
2022/01/22 10:00:19;;;;;;;0.10;0.10;;;6.10;99.90;;;;;;5148544;28;20496;-86
2022/01/22 10:02:52;;;;;;;0.10;0.10;;;6.10;99.90;;;;;;5133245;28;20039;-88
2022/01/22 10:05:31;;;;;;;0.10;0.10;;;6.10;99.90;;;;;;5147602;28;20502;-86
2022/01/22 10:08:20;;;;;;;0.00;0.00;;;6.10;99.90;;;;;;5131669;28;20035;-86
2022/01/22 10:10:48;;;;;;;0.10;0.10;;;6.10;99.90;;;;;;5131638;28;20069;-86
2022/01/22 10:13:35;;;;;;;0.10;0.10;;;6.20;99.90;;;;;;5131411;28;20084;-86
2022/01/22 10:16:22;;;;;;;0.10;0.10;;;6.20;99.90;;;;;;5131523;28;20078;-87
2022/01/22 10:19:11;;;;;;;0.10;0.10;;;6.20;99.90;;;;;;5148938;28;20046;-86
2022/01/22 10:21:40;;;;;;;0.00;0.00;;;6.20;99.90;;;;;;5130966;28;20047;-87
2022/01/22 10:24:46;;;;;;;0.10;0.10;;;6.30;99.90;;;;;;5130957;28;20047;-86
2022/01/22 10:27:31;;;;;;;0.10;0.10;;;6.30;99.90;;;;;;5127604;28;20044;-86
2022/01/22 10:30:17;;;;;;;0.10;0.10;;;6.30;99.90;;;;;;5145125;28;20083;-86
2022/01/22 10:33:00;;;;;;;0.10;0.10;;;6.40;99.90;;;;;;5165049;27;20088;-85
2022/01/22 10:35:28;;;;;;;0.10;0.10;;;6.60;99.90;;;;;;5130150;28;20381;-86
2022/01/22 10:37:57;;;;;;;0.10;0.10;;;6.40;99.90;;;;;;5148253;27;20235;-85
2022/01/22 10:40:31;;;;;;;0.10;0.10;;;6.40;99.90;;;;;;5146919;28;20500;-85
2022/01/22 10:43:10;;;;;;;0.10;0.10;;;6.40;99.90;;;;;;5130582;28;20039;-86
2022/01/22 10:45:43;;;;;;;0.10;0.10;;;7.30;99.90;;;;;;5130448;28;20074;-86
2022/01/22 10:48:21;;;;;;;0.10;0.10;;;6.50;99.90;;;;;;5132932;28;20046;-86
2022/01/22 10:51:07;;;;;;;0.03;0.03;;;6.40;99.90;;;;;;5130984;28;20043;-86
2022/01/22 10:53:44;;;;;;;0.10;0.10;;;6.50;99.90;;;;;;5130544;28;20040;-86
2022/01/22 10:56:17;;;;;;;0.00;0.00;;;6.50;99.90;;;;;;5130826;28;20036;-86
2022/01/22 10:58:55;;;;;;;0.00;0.00;;;6.60;99.90;;;;;;5164950;27;20078;-86
2022/01/22 11:01:25;;;;;;;0.00;0.00;;;6.60;99.90;;;;;;5129784;28;20119;-85
2022/01/22 11:04:02;;;;;;;0.00;0.00;;;7.00;99.90;;;;;;5153813;27;20040;-86
2022/01/22 11:06:29;;;;;;;0.00;0.00;;;6.60;99.90;;;;;;5118029;28;20514;-86
2022/01/22 11:09:12;;;;;;;0.10;0.10;;;6.50;99.90;;;;;;5139041;28;20032;-86
2022/01/22 11:11:41;;;;;;;0.10;0.10;;;6.40;99.90;;;;;;5147069;27;20047;-87
2022/01/22 11:14:41;;;;;;;0.10;0.10;;;6.40;99.90;;;;;;5146367;27;20047;-86
2022/01/22 11:17:19;;;;;;;0.03;0.03;;;6.40;99.90;;;;;;5132197;28;20046;-86
2022/01/22 11:19:47;;;;;;;0.10;0.10;;;6.30;99.90;;;;;;5130567;28;20102;-86
2022/01/22 11:22:16;;;;;;;0.10;0.10;;;6.40;99.90;;;;;;5164237;27;20039;-86
2022/01/22 11:24:51;;;;;;;0.10;0.10;;;6.40;99.90;;;;;;5141642;28;20055;-86
2022/01/22 11:27:19;;;;;;;0.10;0.10;;;6.50;99.90;;;;;;5126622;28;20036;-86
2022/01/22 11:30:03;;;;;;;0.05;0.05;;;6.50;99.90;;;;;;5134428;28;20400;-86
2022/01/22 11:32:52;;;;;;;0.10;0.10;;;6.60;99.90;;;;;;5144025;28;20056;-86
2022/01/22 11:35:48;;;;;;;0.10;0.10;;;6.60;99.90;;;;;;5155716;27;20040;-86
2022/01/22 11:38:37;;;;;;;0.00;0.00;;;6.70;99.90;;;;;;5145474;27;20056;-86
2022/01/22 11:41:05;;;;;;;0.00;0.00;;;6.80;99.90;;;;;;5131086;28;20040;-86
2022/01/22 11:44:00;;;;;;;0.00;0.00;;;6.40;99.90;;;;;;5152046;27;20066;-86
2022/01/22 11:46:34;;;;;;;0.00;0.00;;;6.90;99.90;;;;;;5158022;27;20419;-86
2022/01/22 11:49:10;;;;;;;0.10;0.10;;;6.90;99.90;;;;;;5109943;28;20143;-86
2022/01/22 11:51:37;;;;;;;0.00;0.00;;;6.90;99.90;;;;;;5109577;28;20044;-86
2022/01/22 11:54:25;;;;;;;0.00;0.00;;;6.90;99.90;;;;;;5126855;28;20127;-85
2022/01/22 11:56:55;;;;;;;0.10;0.10;;;6.90;99.90;;;;;;5173877;27;20042;-86
2022/01/22 11:59:28;;;;;;;0.00;0.00;;;6.90;99.90;;;;;;5112378;28;20803;-86
2022/01/22 12:02:02;;;;;;;0.10;0.10;;;6.90;99.90;;;;;;5129476;28;20075;-86
2022/01/22 12:04:46;;;;;;;0.00;0.00;;;7.70;99.90;;;;;;5128493;28;20112;-86
2022/01/22 12:07:16;;;;;;;0.08;0.08;;;6.80;99.90;;;;;;5129556;28;20119;-86
2022/01/22 12:15:33;;;;;;;0.10;0.10;;;6.80;99.90;;;;;;5144817;28;20049;-86
2022/01/22 12:18:08;;;;;;;0.03;0.03;;;6.80;99.90;;;;;;5127219;28;20511;-86
2022/01/22 12:23:07;;;;;;;0.00;0.00;;;6.80;99.90;;;;;;5146278;28;20175;-86
2022/01/22 12:25:34;;;;;;;0.00;0.00;;;6.70;99.90;;;;;;5145375;28;20063;-86
2022/01/22 12:28:03;;;;;;;0.00;0.00;;;7.00;99.90;;;;;;5129495;28;20542;-86
2022/01/22 12:30:51;;;;;;;0.08;0.08;;;6.80;99.90;;;;;;5112303;28;20035;-86
2022/01/22 12:33:30;;;;;;;0.10;0.10;;;6.80;99.90;;;;;;5129076;28;20035;-86
2022/01/22 12:35:59;;;;;;;0.10;0.10;;;6.80;99.90;;;;;;5128699;28;20039;-86
2022/01/22 12:38:38;;;;;;;0.08;0.08;;;6.70;99.90;;;;;;5128415;28;20051;-86
2022/01/22 12:44:13;;;;;;;0.03;0.03;;;6.60;99.90;;;;;;5146524;28;20519;-86
2022/01/22 12:46:40;;;;;;;0.00;0.00;;;6.60;99.90;;;;;;5128077;28;20040;-86
2022/01/22 12:49:09;;;;;;;0.10;0.10;;;6.60;99.90;;;;;;5129255;28;20028;-85
2022/01/22 12:51:36;;;;;;;0.10;0.10;;;6.50;99.90;;;;;;5149889;28;20044;-86
2022/01/22 12:54:03;;;;;;;0.00;0.00;;;6.50;99.90;;;;;;5108847;28;20044;-86
2022/01/22 12:59:07;;;;;;;0.03;0.03;;;6.50;99.90;;;;;;5150510;28;20518;-86
2022/01/22 13:01:37;;;;;;;0.08;0.08;;;6.40;99.90;;;;;;5141079;28;20048;-85
2022/01/22 13:04:07;;;;;;;0.10;0.10;;;6.40;99.90;;;;;;5114410;28;20036;-86
2022/01/22 13:06:49;;;;;;;0.10;0.10;;;6.40;99.90;;;;;;5096374;28;20035;-86
2022/01/22 13:09:16;;;;;;;0.08;0.08;;;6.50;99.90;;;;;;5112545;28;20036;-85
2022/01/22 13:11:49;;;;;;;0.00;0.00;;;6.50;99.90;;;;;;5095531;28;20431;-86
2022/01/22 13:14:25;;;;;;;0.00;0.00;;;6.50;99.90;;;;;;5117061;28;20043;-86
2022/01/22 13:16:54;;;;;;;0.00;0.00;;;6.50;99.90;;;;;;5132743;28;20848;-85
2022/01/22 13:19:22;;;;;;;0.00;0.00;;;6.50;99.90;;;;;;5132558;28;20042;-85
2022/01/22 13:21:54;;;;;;;0.00;0.00;;;6.50;99.90;;;;;;5132886;28;20043;-86
2022/01/22 13:24:25;;;;;;;0.10;0.10;;;6.50;99.90;;;;;;5167000;27;20471;-86
2022/01/22 13:27:13;;;;;;;0.00;0.00;;;6.40;99.90;;;;;;5157734;27;20043;-86
2022/01/22 13:29:53;;;;;;;0.10;0.10;;;6.50;99.90;;;;;;5151536;27;20046;-84
2022/01/22 13:35:00;;;;;;;0.00;0.00;;;6.40;99.90;;;;;;5149205;28;20054;-86
2022/01/22 13:49:03;;;;;;;0.10;0.10;;;6.50;99.90;;;;;;5137496;28;20036;-87
2022/01/22 13:51:30;;;;;;;0.10;0.10;;;6.50;99.90;;;;;;5167088;27;20039;-87
2022/01/22 13:53:59;;;;;;;0.03;0.03;;;6.50;99.90;;;;;;5166940;27;20061;-86
2022/01/22 13:56:43;;;;;;;0.10;0.10;;;6.40;99.90;;;;;;5165661;27;20047;-87
2022/01/22 13:59:16;;;;;;;0.10;0.10;;;6.50;99.90;;;;;;5166261;27;20035;-87
2022/01/22 14:01:52;;;;;;;0.00;0.00;;;6.40;99.90;;;;;;5131702;28;20048;-86
2022/01/22 14:04:19;;;;;;;0.00;0.00;;;6.40;99.90;;;;;;5148531;28;20040;-87
2022/01/22 14:06:47;;;;;;;0.10;0.10;;;6.40;99.90;;;;;;5114695;28;20040;-85
2022/01/22 14:09:19;;;;;;;0.10;0.10;;;6.30;99.90;;;;;;5146317;28;20028;-85
2022/01/22 14:12:23;;;;;;;0.10;0.10;;;6.30;99.90;;;;;;5131412;28;20044;-86
2022/01/22 14:15:07;;;;;;;0.00;0.00;;;6.30;99.90;;;;;;5072706;28;20037;-86
2022/01/22 14:18:13;;;;;;;0.10;0.10;;;6.30;99.90;;;;;;5127855;28;20052;-86
2022/01/22 14:21:04;;;;;;;0.00;0.00;;;6.30;99.90;;;;;;5131282;28;20520;-86
2022/01/22 14:23:35;;;;;;;0.10;0.10;;;6.30;99.90;;;;;;5148155;28;20127;-86
2022/01/22 14:26:23;;;;;;;0.10;0.10;;;6.30;99.90;;;;;;5132034;28;20039;-85
2022/01/22 14:29:19;;;;;;;0.10;0.10;;;6.30;99.90;;;;;;5148050;28;20035;-86
2022/01/22 14:31:53;;;;;;;0.00;0.00;;;6.30;99.90;;;;;;5166964;27;20052;-86
2022/01/22 14:34:39;;;;;;;0.10;0.10;;;6.30;99.90;;;;;;5115273;28;20079;-86
2022/01/22 14:37:07;;;;;;;0.10;0.10;;;6.30;99.90;;;;;;5130721;28;20458;-86
2022/01/22 14:45:22;;;;;;;0.10;0.10;;;6.30;99.90;;;;;;5147666;28;20412;-86
2022/01/22 14:47:57;;;;;;;0.10;0.10;;;6.30;99.90;;;;;;5147495;27;20519;-86
2022/01/22 14:50:25;;;;;;;0.10;0.10;;;6.30;99.90;;;;;;5148461;27;20122;-86
2022/01/22 14:52:57;;;;;;;0.10;0.10;;;6.60;99.90;;;;;;5131034;28;20071;-85
2022/01/22 14:55:25;;;;;;;0.10;0.10;;;6.20;99.90;;;;;;5130216;28;20051;-86
2022/01/22 14:57:53;;;;;;;0.10;0.10;;;6.20;99.90;;;;;;5130421;28;20046;-86
2022/01/22 15:00:20;;;;;;;0.10;0.10;;;6.20;99.90;;;;;;5130408;28;20035;-85
2022/01/22 15:02:48;;;;;;;0.03;0.03;;;6.20;99.90;;;;;;5130635;28;20047;-85
2022/01/22 15:05:15;;;;;;;0.10;0.10;;;6.10;99.90;;;;;;5147047;28;20078;-86
2022/01/22 15:07:44;;;;;;;0.20;0.20;;;6.20;99.90;;;;;;5130513;28;20507;-85
2022/01/22 15:10:14;;;;;;;0.10;0.10;;;6.20;99.90;;;;;;5130809;28;20130;-85
2022/01/22 15:12:41;;;;;;;0.10;0.10;;;6.10;99.90;;;;;;5147277;28;20042;-85
2022/01/22 15:15:11;;;;;;;0.00;0.00;;;6.10;99.90;;;;;;5130230;28;20074;-85
2022/01/22 15:20:18;;;;;;;0.10;0.10;;;6.10;99.90;;;;;;5116454;28;20046;-87
2022/01/22 15:22:45;;;;;;;0.10;0.10;;;6.10;99.90;;;;;;5147715;28;20535;-86
2022/01/22 15:25:12;;;;;;;0.10;0.10;;;6.10;99.90;;;;;;5130006;28;20135;-85
2022/01/22 15:27:39;;;;;;;0.00;0.00;;;6.10;99.90;;;;;;5129984;28;20031;-86